Time;durP1;ratioP1;P1;durP2;ratioP2;P2;SDS_P1;SDS_P2;PMS_P1;PMS_P2;Temp;Humidity;BMP_temperature;BMP_pressure;BME280_temperature;BME280_humidity;BME280_pressure;Samples;Min_cycle;Max_cycle;Signal;HPM_P1;HPM_P2
2021/08/13 00:01:06;;;;;;;50.63;20.95;;;;;;;17.58;79.51;99181.78;4982160;28;20046;-92
2021/08/13 00:03:33;;;;;;;36.75;19.08;;;;;;;17.96;79.37;99256.84;4974476;28;20038;-93
2021/08/13 00:05:59;;;;;;;34.45;18.05;;;;;;;17.49;79.68;99189.47;4981373;28;20042;-94
2021/08/13 00:08:27;;;;;;;32.85;17.70;;;;;;;18.09;79.85;99291.50;4998567;28;20522;-92
2021/08/13 00:10:53;;;;;;;45.60;19.27;;;;;;;17.65;79.97;99230.06;4973260;28;20133;-94
2021/08/13 00:13:45;;;;;;;47.33;23.27;;;;;;;17.38;80.25;99197.56;4982090;28;20289;-93
2021/08/13 00:16:15;;;;;;;38.60;18.48;;;;;;;17.23;80.32;99189.31;4932530;28;20110;-94
2021/08/13 00:18:43;;;;;;;34.45;17.58;;;;;;;17.28;80.10;99194.53;4961354;28;20046;-92
2021/08/13 00:21:10;;;;;;;35.53;16.98;;;;;;;17.47;79.99;99236.00;4961059;28;20562;-93
2021/08/13 00:23:37;;;;;;;34.45;16.40;;;;;;;17.18;80.29;99190.38;4946498;28;20050;-95
2021/08/13 00:26:04;;;;;;;27.92;15.57;;;;;;;17.56;80.12;99253.19;4961924;28;20185;-93
2021/08/13 00:31:07;;;;;;;39.92;15.15;;;;;;;17.20;80.39;99204.63;4992881;28;20051;-93
2021/08/13 00:33:34;;;;;;;29.90;14.48;;;;;;;17.32;80.18;99237.66;4974184;28;20078;-93
2021/08/13 00:36:04;;;;;;;30.45;12.82;;;;;;;17.01;80.52;99196.28;4926164;28;20230;-95
2021/08/13 00:38:33;;;;;;;23.25;11.85;;;;;;;17.23;80.43;99247.31;4941363;28;20046;-94
2021/08/13 00:41:03;;;;;;;22.40;12.95;;;;;;;16.97;80.40;99196.19;4945233;28;20597;-92
2021/08/13 00:43:30;;;;;;;21.27;11.57;;;;;;;16.91;80.28;99205.91;4976741;28;20124;-94
2021/08/13 00:46:16;;;;;;;33.35;13.00;;;;;;;17.04;80.45;99231.47;4969362;28;20046;-92
2021/08/13 00:51:40;;;;;;;23.50;13.93;;;;;;;17.23;80.56;99258.38;5016592;28;20099;-94
2021/08/13 00:54:12;;;;;;;32.88;13.60;;;;;;;16.81;80.57;99196.22;4984335;28;20081;-94
2021/08/13 00:56:52;;;;;;;29.35;13.88;;;;;;;16.80;80.58;99197.38;4983945;28;20038;-95
2021/08/13 01:02:12;;;;;;;30.58;13.13;;;;;;;16.99;80.26;99235.31;5000860;28;20038;-94
2021/08/13 01:04:39;;;;;;;25.90;12.65;;;;;;;16.66;80.48;99194.25;4983447;28;20073;-94
2021/08/13 01:07:16;;;;;;;25.98;12.68;;;;;;;16.94;80.49;99238.34;5002134;28;20145;-93
2021/08/13 01:09:45;;;;;;;25.13;12.50;;;;;;;16.86;80.64;99231.84;5001756;28;20038;-93
2021/08/13 01:12:46;;;;;;;24.67;11.90;;;;;;;17.27;80.58;99293.19;4984829;28;20038;-96
2021/08/13 01:15:16;;;;;;;22.52;11.88;;;;;;;16.99;80.33;99251.09;4873715;29;20538;-95
2021/08/13 01:17:58;;;;;;;21.38;11.82;;;;;;;16.97;80.26;99254.19;4890241;28;20554;-95
2021/08/13 01:21:05;;;;;;;30.25;12.95;;;;;;;17.17;80.77;99281.91;4981848;28;20136;-93
2021/08/13 01:23:39;;;;;;;24.33;11.80;;;;;;;16.82;80.66;99216.34;4998609;28;20046;-92
2021/08/13 01:26:09;;;;;;;25.58;12.48;;;;;;;17.14;80.65;99280.63;4964167;28;20048;-92
2021/08/13 01:28:57;;;;;;;24.55;13.48;;;;;;;16.67;80.76;99210.44;4983596;28;20071;-93
2021/08/13 01:31:26;;;;;;;25.90;13.05;;;;;;;16.36;81.15;99178.13;4980278;28;20081;-93
2021/08/13 01:34:00;;;;;;;26.30;12.27;;;;;;;16.30;81.16;99170.47;4975285;28;20044;-93
2021/08/13 01:36:30;;;;;;;25.27;13.05;;;;;;;16.75;81.41;99252.06;4979920;28;20092;-92
2021/08/13 01:39:03;;;;;;;25.27;13.82;;;;;;;16.23;81.47;99179.38;4978719;28;20042;-94
2021/08/13 01:44:19;;;;;;;24.52;14.07;;;;;;;16.86;81.57;99291.78;4954531;28;20059;-94
2021/08/13 01:46:48;;;;;;;27.35;15.20;;;;;;;16.30;81.41;99211.84;4937370;28;20512;-94
2021/08/13 01:49:16;;;;;;;24.20;13.43;;;;;;;16.62;81.66;99273.38;4926969;29;20051;-93
2021/08/13 01:51:44;;;;;;;22.45;13.95;;;;;;;16.50;82.08;99256.91;4910855;29;20039;-94
2021/08/13 01:54:11;;;;;;;22.70;13.45;;;;;;;16.45;82.36;99258.75;4909178;28;20145;-94
2021/08/13 01:56:44;;;;;;;22.00;14.00;;;;;;;16.66;82.32;99296.38;4944456;28;20045;-93
2021/08/13 02:01:41;;;;;;;30.02;13.82;;;;;;;16.59;82.16;99283.19;5018187;28;20132;-95
2021/08/13 02:04:09;;;;;;;27.27;14.52;;;;;;;16.16;82.13;99209.50;4982863;28;20593;-95
2021/08/13 02:06:40;;;;;;;31.92;15.43;;;;;;;16.39;81.95;99246.41;4983137;28;20045;-94
2021/08/13 02:11:49;;;;;;;29.85;15.38;;;;;;;16.08;81.03;99215.97;4999108;28;20041;-95
2021/08/13 02:14:18;;;;;;;19.48;13.70;;;;;;;16.21;80.43;99243.13;4966970;28;20132;-93
2021/08/13 02:16:53;;;;;;;25.63;13.45;;;;;;;16.50;80.36;99290.81;4965749;28;20052;-94
2021/08/13 02:19:36;;;;;;;25.67;12.85;;;;;;;16.06;80.43;99241.16;4980932;28;20052;-93
2021/08/13 02:22:07;;;;;;;24.05;12.40;;;;;;;16.52;80.30;99304.25;4978572;28;20059;-93
2021/08/13 02:24:34;;;;;;;25.63;11.88;;;;;;;16.44;79.90;99287.50;4976971;28;20407;-93
2021/08/13 02:27:20;;;;;;;21.65;11.10;;;;;;;16.45;79.72;99299.34;4999992;28;20044;-94
2021/08/13 02:29:48;;;;;;;17.25;10.57;;;;;;;16.37;79.80;99289.28;4984331;28;20546;-96
2021/08/13 02:32:15;;;;;;;;;;;;;;;16.79;79.87;99352.34;4968016;28;20048;-95
2021/08/13 02:34:42;;;;;;;23.00;10.10;;;;;;;16.11;79.59;99249.16;4963585;28;19922;-93
2021/08/13 02:37:34;;;;;;;20.65;10.80;;;;;;;16.46;79.75;99320.28;4998896;28;20129;-94
2021/08/13 02:40:09;;;;;;;16.80;10.15;;;;;;;16.39;79.59;99317.28;4967417;28;20037;-94
2021/08/13 02:45:06;;;;;;;24.57;10.77;;;;;;;16.17;78.88;99274.53;5006459;28;20092;-92
2021/08/13 02:47:35;;;;;;;30.58;11.25;;;;;;;16.79;79.25;99366.16;4982033;28;20045;-93
2021/08/13 02:50:07;;;;;;;22.25;10.25;;;;;;;16.28;78.96;99280.34;4981693;28;20033;-92
2021/08/13 02:52:44;;;;;;;20.88;10.35;;;;;;;16.52;78.58;99321.59;4997319;28;20092;-90
2021/08/13 02:55:16;;;;;;;22.40;10.75;;;;;;;16.66;77.68;99330.28;4981423;28;20061;-92
2021/08/13 02:57:46;;;;;;;19.02;10.55;;;;;;;16.77;77.51;99349.13;4980158;28;20034;-94
2021/08/13 03:00:13;;;;;;;19.55;10.98;;;;;;;16.85;77.58;99365.53;4981342;28;20042;-91
2021/08/13 03:02:46;;;;;;;19.48;10.25;;;;;;;16.77;77.27;99349.13;4975098;28;20034;-91
2021/08/13 03:05:16;;;;;;;21.30;10.63;;;;;;;16.79;76.68;99355.09;4997743;28;20063;-93
2021/08/13 03:10:11;;;;;;;22.67;11.40;;;;;;;16.90;77.04;99345.94;5016050;28;20048;-92
2021/08/13 03:12:38;;;;;;;20.98;10.77;;;;;;;16.44;76.91;99276.47;4966818;28;20388;-93
2021/08/13 03:15:08;;;;;;;29.17;11.23;;;;;;;16.49;76.82;99286.47;4981824;28;20042;-92
2021/08/13 03:17:39;;;;;;;29.05;11.48;;;;;;;16.65;76.61;99316.81;4975497;28;20088;-92
2021/08/13 03:20:09;;;;;;;23.08;10.57;;;;;;;16.41;76.25;99303.97;4997810;28;20193;-94
2021/08/13 03:22:44;;;;;;;22.15;10.60;;;;;;;16.33;76.71;99289.19;4966052;28;20045;-93
2021/08/13 03:25:12;;;;;;;15.88;9.95;;;;;;;16.91;75.94;99393.69;4963926;28;20065;-93
2021/08/13 03:27:42;;;;;;;14.60;9.32;;;;;;;16.69;75.99;99372.97;4981507;28;20131;-93
2021/08/13 03:30:14;;;;;;;25.02;10.32;;;;;;;16.86;76.52;99385.66;4996668;28;20046;-91
2021/08/13 03:32:47;;;;;;;19.40;9.68;;;;;;;16.39;75.66;99307.09;4965148;28;20088;-92
2021/08/13 03:35:15;;;;;;;20.48;8.60;;;;;;;16.81;75.28;99375.66;4980806;28;20042;-95
2021/08/13 03:37:41;;;;;;;24.75;7.85;;;;;;;16.37;74.01;99294.78;4974341;28;20039;-95
2021/08/13 03:40:08;;;;;;;17.98;7.43;;;;;;;16.32;73.07;99293.06;4962600;28;20042;-94
2021/08/13 03:42:37;;;;;;;13.18;6.45;;;;;;;16.57;72.75;99345.41;4958310;28;20054;-91
2021/08/13 03:45:04;;;;;;;15.82;6.50;;;;;;;16.60;72.47;99364.03;4990121;28;20034;-92
2021/08/13 03:47:31;;;;;;;8.38;5.55;;;;;;;16.84;71.71;99412.81;4943154;28;20137;-95
2021/08/13 03:49:57;;;;;;;20.35;6.32;;;;;;;16.61;71.91;99371.13;4978292;28;20093;-91
2021/08/13 03:52:26;;;;;;;8.80;5.07;;;;;;;16.72;70.86;99397.09;4986312;28;20049;-93
2021/08/13 03:54:52;;;;;;;10.95;5.78;;;;;;;16.75;71.94;99398.34;4974244;28;20453;-91
2021/08/13 03:57:23;;;;;;;10.02;4.80;;;;;;;16.48;70.50;99370.38;4959749;28;20571;-93
2021/08/13 03:59:49;;;;;;;13.18;5.20;;;;;;;16.57;70.93;99370.25;4958583;28;20039;-91
2021/08/13 04:02:15;;;;;;;9.17;4.80;;;;;;;16.64;70.69;99376.75;4970099;28;20045;-92
2021/08/13 04:04:43;;;;;;;8.52;5.18;;;;;;;17.01;71.14;99436.53;4996241;28;20048;-94
2021/08/13 04:07:12;;;;;;;10.80;5.07;;;;;;;16.42;70.47;99355.22;5012643;28;20038;-96
2021/08/13 04:09:41;;;;;;;14.40;5.22;;;;;;;16.45;70.92;99368.31;5012800;28;20077;-96
2021/08/13 04:12:10;;;;;;;11.93;6.40;;;;;;;16.45;71.21;99371.09;4980643;28;20041;-95
2021/08/13 04:14:37;;;;;;;12.50;5.95;;;;;;;16.32;71.68;99337.22;4993018;28;20522;-95
2021/08/13 04:17:05;;;;;;;11.73;5.53;;;;;;;16.82;70.69;99406.84;4960259;28;20419;-91
2021/08/13 04:19:33;;;;;;;14.85;5.38;;;;;;;16.61;70.36;99355.38;4995071;28;20096;-93
2021/08/13 04:24:25;;;;;;;16.58;5.28;;;;;;;17.04;69.85;99389.69;4994120;28;20049;-93
2021/08/13 04:26:51;;;;;;;11.10;6.65;;;;;;;17.05;69.71;99387.72;4980910;28;20038;-93
2021/08/13 04:29:18;;;;;;;15.27;5.65;;;;;;;17.02;69.06;99363.56;4966126;28;20065;-94
2021/08/13 04:31:45;;;;;;;10.73;5.03;;;;;;;17.34;68.54;99430.72;4946484;28;20504;-94
2021/08/13 04:34:11;;;;;;;10.00;4.95;;;;;;;17.11;68.13;99400.13;4949558;28;20039;-95
2021/08/13 04:36:37;;;;;;;10.25;5.25;;;;;;;16.72;68.27;99343.81;4980761;28;20066;-93
2021/08/13 04:39:05;;;;;;;11.27;5.70;;;;;;;17.00;68.64;99383.28;4964557;28;20034;-91
2021/08/13 04:41:37;;;;;;;13.85;5.80;;;;;;;16.93;68.35;99361.00;4949436;28;20093;-95
2021/08/13 04:44:04;;;;;;;11.60;5.03;;;;;;;16.93;67.38;99372.03;4963629;28;20058;-93
2021/08/13 04:46:32;;;;;;;13.55;5.45;;;;;;;17.17;67.35;99401.47;4963177;28;20042;-93
2021/08/13 04:49:02;;;;;;;12.30;4.97;;;;;;;17.07;67.50;99402.78;4948157;28;20046;-93
2021/08/13 04:54:19;;;;;;;11.68;5.57;;;;;;;17.21;68.14;99399.59;4953666;29;20075;-91
2021/08/13 04:56:47;;;;;;;14.02;5.70;;;;;;;17.14;67.34;99380.88;4939557;28;20050;-92
2021/08/13 05:01:45;;;;;;;15.68;5.50;;;;;;;17.21;66.43;99396.03;4975868;28;20038;-92
2021/08/13 05:04:12;;;;;;;10.02;4.75;;;;;;;17.00;65.79;99369.47;4927555;28;20078;-94
2021/08/13 05:06:38;;;;;;;8.35;4.88;;;;;;;16.93;66.05;99343.63;4928335;28;20034;-93
2021/08/13 05:09:14;;;;;;;14.73;5.18;;;;;;;17.44;66.77;99424.66;4930068;28;20051;-92
2021/08/13 05:11:43;;;;;;;15.50;5.82;;;;;;;17.42;66.57;99415.94;4947035;23;20055;-93
2021/08/13 05:14:16;;;;;;;14.60;5.53;;;;;;;17.05;65.71;99340.78;4928342;29;20086;-93
2021/08/13 05:16:43;;;;;;;9.98;5.32;;;;;;;17.36;65.35;99400.78;4941428;29;20055;-94
2021/08/13 05:19:09;;;;;;;14.03;5.10;;;;;;;17.87;65.69;99447.84;4956104;29;20535;-82
2021/08/13 05:21:38;;;;;;;10.63;5.28;;;;;;;18.00;64.65;99430.00;4954746;29;20870;-82
2021/08/13 05:24:05;;;;;;;14.30;4.97;;;;;;;18.07;65.02;99421.84;4956128;29;20070;-82
2021/08/13 05:26:32;;;;;;;15.38;5.57;;;;;;;18.20;66.14;99444.69;4955067;29;20148;-83
2021/08/13 05:28:58;;;;;;;9.47;6.03;;;;;;;18.16;65.75;99448.53;4954431;28;20092;-84
2021/08/13 05:31:25;;;;;;;14.23;6.32;;;;;;;18.57;64.78;99449.03;4954079;29;20506;-83
2021/08/13 05:33:51;;;;;;;9.33;5.20;;;;;;;18.96;63.43;99444.31;4955914;29;20409;-83
2021/08/13 05:36:18;;;;;;;;;;;;;;;19.20;64.24;99445.94;4954619;29;20061;-81
2021/08/13 05:38:44;;;;;;;13.40;5.65;;;;;;;19.33;60.83;99429.94;4955985;29;19922;-83
2021/08/13 05:41:11;;;;;;;;;;;;;;;19.38;63.39;99447.09;4954659;29;20512;-82
2021/08/13 05:43:38;;;;;;;11.77;5.57;;;;;;;19.63;61.87;99450.31;4954396;29;20387;-82
2021/08/13 05:46:04;;;;;;;11.93;5.20;;;;;;;19.75;60.69;99443.78;4955569;29;20581;-82
2021/08/13 05:48:31;;;;;;;10.57;4.93;;;;;;;19.79;61.62;99447.41;4951077;28;20291;-81
2021/08/13 05:50:57;;;;;;;16.90;6.03;;;;;;;19.60;60.93;99456.59;4958363;28;20055;-83
2021/08/13 05:53:26;;;;;;;9.32;4.47;;;;;;;19.90;61.71;99456.72;4944359;29;20035;-84
2021/08/13 05:55:52;;;;;;;13.75;6.10;;;;;;;19.98;60.18;99459.59;4956945;28;20134;-87
2021/08/13 05:58:19;;;;;;;12.10;5.25;;;;;;;19.86;59.48;99458.63;4954838;28;20416;-80
2021/08/13 06:00:45;;;;;;;15.70;5.22;;;;;;;19.80;60.92;99462.91;4953328;29;20047;-81
2021/08/13 06:03:11;;;;;;;8.90;5.20;;;;;;;19.90;60.51;99473.38;4954511;29;20047;-85
2021/08/13 06:05:46;;;;;;;9.77;5.20;;;;;;;20.06;60.76;99464.88;4955614;29;20393;-82
2021/08/13 06:08:18;;;;;;;11.02;4.80;;;;;;;20.22;59.59;99478.59;4940250;29;20493;-78
2021/08/13 06:10:44;;;;;;;11.23;5.30;;;;;;;20.48;59.25;99483.34;4931235;29;20083;-77
2021/08/13 06:13:10;;;;;;;11.77;4.60;;;;;;;20.52;58.11;99463.97;4928787;29;20299;-81
2021/08/13 06:15:36;;;;;;;15.43;4.93;;;;;;;20.21;59.61;99485.34;4927618;29;20078;-85
2021/08/13 06:18:05;;;;;;;17.55;5.20;;;;;;;20.03;62.15;99481.47;4950544;29;20079;-81
2021/08/13 06:20:31;;;;;;;10.90;4.95;;;;;;;20.29;61.81;99492.56;4934708;29;20059;-81
2021/08/13 06:23:10;;;;;;;18.70;4.63;;;;;;;20.16;59.91;99493.97;4934476;29;20091;-81
2021/08/13 06:25:37;;;;;;;12.10;4.35;;;;;;;20.24;60.85;99495.69;4948893;28;20052;-82
2021/08/13 06:28:03;;;;;;;15.85;4.57;;;;;;;20.51;58.43;99498.50;4935175;29;20039;-83
2021/08/13 06:30:30;;;;;;;13.77;4.25;;;;;;;20.61;58.96;99490.28;4952058;28;20048;-82
2021/08/13 06:32:59;;;;;;;11.52;4.15;;;;;;;20.39;59.05;99486.38;4934813;29;20386;-80
2021/08/13 06:35:29;;;;;;;8.88;4.30;;;;;;;20.38;61.18;99493.13;4950016;28;20036;-81
2021/08/13 06:37:57;;;;;;;10.77;4.53;;;;;;;20.88;59.65;99496.59;4933385;29;20409;-82
2021/08/13 06:40:25;;;;;;;14.18;4.18;;;;;;;21.15;59.02;99493.72;4932215;29;20036;-82
2021/08/13 06:42:52;;;;;;;26.92;4.13;;;;;;;21.43;58.42;99509.19;4934107;29;20047;-83
2021/08/13 06:45:27;;;;;;;7.88;4.07;;;;;;;21.25;57.44;99508.94;4948686;28;20630;-84
2021/08/13 07:27:13;;;;;;;13.63;5.75;;;;;;;21.70;54.91;99495.94;4992693;27;4420638;-84
2021/08/13 07:29:40;;;;;;;11.82;4.60;;;;;;;21.89;55.98;99519.97;5099192;28;20481;-85
2021/08/13 07:32:06;;;;;;;14.18;4.78;;;;;;;21.71;54.39;99539.25;5092469;28;20032;-85
2021/08/13 07:34:33;;;;;;;6.53;4.25;;;;;;;21.04;55.34;99473.38;5099200;28;20181;-84
2021/08/13 07:36:59;;;;;;;14.67;5.47;;;;;;;21.10;56.84;99502.44;5099602;28;20540;-84
2021/08/13 07:39:26;;;;;;;30.05;6.15;;;;;;;21.22;57.34;99506.91;5091988;28;20085;-84
2021/08/13 07:41:52;;;;;;;12.32;4.88;;;;;;;21.32;55.86;99531.25;5106344;28;20044;-87
2021/08/13 07:44:20;;;;;;;11.35;4.47;;;;;;;21.45;56.00;99538.19;5081885;28;20047;-82
2021/08/13 07:46:46;;;;;;;12.18;4.72;;;;;;;21.51;55.73;99524.75;5089632;28;20535;-87
2021/08/13 07:49:13;;;;;;;21.70;5.05;;;;;;;21.65;56.18;99518.53;5103988;28;20102;-82
2021/08/13 07:51:40;;;;;;;17.77;5.37;;;;;;;21.30;56.42;99498.28;5096815;28;20458;-85
2021/08/13 07:54:07;;;;;;;18.27;4.93;;;;;;;21.77;56.69;99549.66;5087346;28;20036;-85
2021/08/13 07:56:33;;;;;;;14.27;5.70;;;;;;;21.38;56.53;99521.44;5084879;28;20040;-83
2021/08/13 07:58:59;;;;;;;15.60;5.32;;;;;;;21.87;57.07;99556.50;5084808;28;20481;-85
2021/08/13 08:01:26;;;;;;;9.88;4.82;;;;;;;21.96;54.38;99553.41;5060891;28;20040;-85
2021/08/13 08:03:52;;;;;;;11.82;5.05;;;;;;;21.71;54.86;99503.88;5099461;28;20711;-85
2021/08/13 08:06:18;;;;;;;9.50;4.83;;;;;;;21.99;53.89;99539.53;5106968;28;20032;-85
2021/08/13 08:08:44;;;;;;;10.43;4.37;;;;;;;22.00;54.64;99557.81;5112011;28;20071;-85
2021/08/13 08:11:10;;;;;;;12.53;5.00;;;;;;;21.86;55.31;99549.34;5087526;28;20285;-86
2021/08/13 08:13:36;;;;;;;14.80;5.33;;;;;;;21.81;54.75;99535.78;5121006;28;20031;-84
2021/08/13 08:16:05;;;;;;;13.20;4.80;;;;;;;21.99;55.36;99577.72;5105105;28;20027;-85
2021/08/13 08:18:31;;;;;;;10.63;4.78;;;;;;;22.01;54.17;99570.53;5112350;28;20131;-86
2021/08/13 08:20:57;;;;;;;8.82;5.00;;;;;;;22.08;54.14;99564.25;5114000;28;20118;-85
2021/08/13 08:23:24;;;;;;;13.85;4.30;;;;;;;22.14;54.46;99586.97;5103199;28;20043;-87
2021/08/13 08:25:50;;;;;;;14.60;5.20;;;;;;;22.21;55.54;99584.28;5105089;28;20060;-87
2021/08/13 08:28:16;;;;;;;15.80;5.15;;;;;;;21.91;53.90;99570.44;5090547;28;20077;-86
2021/08/13 08:30:42;;;;;;;10.97;4.53;;;;;;;22.24;55.09;99595.44;5101682;28;20063;-84
2021/08/13 08:33:08;;;;;;;11.73;4.47;;;;;;;22.34;55.22;99595.94;5073989;28;20444;-84
2021/08/13 08:35:33;;;;;;;7.70;4.63;;;;;;;22.32;53.92;99573.22;5075572;28;20119;-85
2021/08/13 08:38:01;;;;;;;;;;;;;;;22.58;53.84;99598.09;5094091;28;20040;-87
2021/08/13 08:40:30;;;;;;;19.90;5.05;;;;;;;22.70;53.51;99599.78;5094415;28;19932;-86
2021/08/13 08:42:57;;;;;;;13.25;5.35;;;;;;;22.51;53.39;99592.47;5086097;28;20044;-85
2021/08/13 08:45:26;;;;;;;15.20;5.30;;;;;;;22.75;53.98;99594.66;5093324;28;20074;-84
2021/08/13 08:47:57;;;;;;;14.98;4.90;;;;;;;23.01;52.74;99592.03;5102209;28;20162;-83
2021/08/13 08:50:25;;;;;;;12.15;4.95;;;;;;;23.02;51.82;99600.00;5091804;28;20432;-85
2021/08/13 08:52:52;;;;;;;12.57;5.15;;;;;;;22.86;52.89;99591.13;5092479;28;20074;-84
2021/08/13 08:55:19;;;;;;;14.10;4.18;;;;;;;23.05;52.44;99584.50;5097588;28;20123;-86
2021/08/13 08:57:46;;;;;;;19.10;5.22;;;;;;;23.46;51.55;99582.25;5100396;28;20093;-84
2021/08/13 09:00:12;;;;;;;;;;;;;;;23.30;51.69;99592.97;5072016;28;20123;-86
2021/08/13 09:02:42;;;;;;;14.48;5.70;;;;;;;23.25;51.22;99565.47;5098325;28;20018;-83
2021/08/13 09:05:10;;;;;;;19.95;5.75;;;;;;;22.97;51.77;99592.78;5068300;28;20127;-78
2021/08/13 09:07:35;;;;;;;11.93;5.20;;;;;;;22.73;52.05;99590.63;5061608;28;20045;-81
2021/08/13 09:10:03;;;;;;;;;;;;;;;22.75;51.52;99596.63;5073874;28;20397;-84
2021/08/13 09:12:29;;;;;;;14.10;5.45;;;;;;;22.35;51.82;99584.41;5078482;28;19945;-90
2021/08/13 09:14:55;;;;;;;17.60;5.10;;;;;;;21.81;53.31;99588.66;5074439;28;20047;-91
2021/08/13 09:17:28;;;;;;;13.70;4.40;;;;;;;21.73;53.59;99593.34;5073995;28;20049;-89
2021/08/13 09:19:56;;;;;;;11.93;4.80;;;;;;;21.77;52.71;99596.97;5057419;28;20045;-90
2021/08/13 09:22:23;;;;;;;18.83;4.60;;;;;;;21.81;53.18;99599.78;5094509;28;20047;-90
2021/08/13 09:24:50;;;;;;;;;;;;;;;22.23;54.42;99613.34;5090595;28;20050;-80
2021/08/13 09:27:34;;;;;;;11.07;4.57;;;;;;;22.83;53.29;99620.56;5071190;28;19920;-85
2021/08/13 09:30:22;;;;;;;15.02;4.63;;;;;;;23.24;51.86;99623.22;5061478;28;20040;-77
2021/08/13 09:33:03;;;;;;;9.55;4.88;;;;;;;23.39;51.04;99632.47;5060252;28;20094;-78
2021/08/13 09:35:32;;;;;;;12.57;5.25;;;;;;;22.90;49.34;99630.97;5051800;28;20035;-94
2021/08/13 09:38:01;;;;;;;16.15;5.75;;;;;;;23.13;51.26;99622.38;5052094;28;20045;-82
2021/08/13 09:40:36;;;;;;;16.48;5.22;;;;;;;23.13;50.24;99628.75;5052280;28;20413;-85
2021/08/13 09:43:03;;;;;;;18.20;4.97;;;;;;;23.35;50.93;99623.28;5066980;28;20123;-81
2021/08/13 09:45:30;;;;;;;10.90;4.95;;;;;;;23.29;51.32;99641.59;5059470;28;20053;-79
2021/08/13 09:48:05;;;;;;;10.38;4.97;;;;;;;23.28;51.13;99646.38;5033210;28;20072;-82
2021/08/13 09:50:33;;;;;;;15.00;5.10;;;;;;;23.34;51.05;99632.81;5038002;28;20075;-85
2021/08/13 09:53:10;;;;;;;11.90;5.03;;;;;;;23.56;49.56;99642.88;5042189;28;20083;-90
2021/08/13 09:55:42;;;;;;;13.90;6.00;;;;;;;23.66;50.15;99656.09;5033660;28;20068;-84
2021/08/13 09:58:09;;;;;;;8.45;5.13;;;;;;;23.57;50.37;99647.28;5015481;28;20045;-79
2021/08/13 10:00:48;;;;;;;12.25;5.28;;;;;;;23.91;49.46;99649.81;5036013;28;20124;-78
2021/08/13 10:03:15;;;;;;;14.65;5.07;;;;;;;23.61;49.10;99648.09;5043486;28;20037;-90
2021/08/13 10:05:41;;;;;;;11.00;4.88;;;;;;;23.35;48.78;99651.19;5032914;28;20049;-90
2021/08/13 10:08:08;;;;;;;20.80;5.65;;;;;;;22.99;50.34;99637.03;5039357;28;20048;-81
2021/08/13 10:10:40;;;;;;;15.02;5.50;;;;;;;23.21;49.89;99663.88;5051415;28;20037;-83
2021/08/13 10:13:18;;;;;;;20.95;6.68;;;;;;;23.26;50.93;99667.47;5036017;28;20479;-78
2021/08/13 10:15:55;;;;;;;14.50;5.65;;;;;;;23.37;49.69;99679.47;5045634;28;20052;-74
2021/08/13 10:18:25;;;;;;;20.77;5.53;;;;;;;23.20;48.90;99659.44;5056164;28;20037;-88
2021/08/13 10:20:56;;;;;;;14.50;5.60;;;;;;;23.09;49.85;99674.53;5053268;28;20045;-87
2021/08/13 10:23:25;;;;;;;14.48;5.90;;;;;;;22.82;48.67;99666.38;5034987;28;20041;-90
2021/08/13 10:25:57;;;;;;;22.42;5.85;;;;;;;23.12;48.90;99663.41;5035428;28;20064;-94
2021/08/13 10:28:34;;;;;;;13.98;5.68;;;;;;;23.32;48.65;99679.84;5059613;28;20045;-88
2021/08/13 10:31:04;;;;;;;16.30;6.00;;;;;;;23.33;49.07;99670.28;5065158;28;20443;-89
2021/08/13 10:33:34;;;;;;;17.48;5.40;;;;;;;23.20;47.89;99651.09;5032922;28;20103;-85
2021/08/13 10:36:02;;;;;;;28.38;5.97;;;;;;;23.25;48.14;99669.47;5031731;28;20047;-91
2021/08/13 10:38:31;;;;;;;15.65;5.75;;;;;;;23.30;48.29;99674.66;5020198;28;20111;-90
2021/08/13 10:40:59;;;;;;;21.05;5.95;;;;;;;23.24;48.28;99675.41;5042430;28;20495;-86
2021/08/13 10:43:41;;;;;;;14.57;5.97;;;;;;;23.09;49.48;99680.91;5039874;28;20044;-93
2021/08/13 10:46:16;;;;;;;20.13;6.00;;;;;;;23.35;50.13;99674.28;5031472;28;20052;-87
2021/08/13 10:48:46;;;;;;;13.70;6.40;;;;;;;23.53;50.20;99681.94;5032955;28;20048;-79
2021/08/13 10:51:25;;;;;;;28.90;6.00;;;;;;;23.78;49.55;99680.09;5030587;28;20041;-83
2021/08/13 10:54:07;;;;;;;18.48;5.63;;;;;;;23.94;48.59;99692.88;5037853;28;20037;-80
2021/08/13 10:56:42;;;;;;;15.68;6.30;;;;;;;23.92;47.50;99688.50;5019796;28;20589;-85
2021/08/13 10:59:41;;;;;;;49.90;9.05;;;;;;;23.61;49.24;99681.59;5040321;28;20033;-81
2021/08/13 11:02:13;;;;;;;33.42;7.68;;;;;;;23.65;48.59;99709.53;5024286;28;20038;-78
2021/08/13 11:04:49;;;;;;;45.28;8.05;;;;;;;23.27;47.94;99714.47;5054933;28;20040;-80
2021/08/13 11:07:58;;;;;;;35.53;6.50;;;;;;;23.27;48.03;99719.25;5046024;28;20125;-82
2021/08/13 11:10:38;;;;;;;19.88;7.10;;;;;;;23.25;49.48;99716.09;5057617;28;20537;-79
2021/08/13 11:13:11;;;;;;;23.25;5.85;;;;;;;23.30;48.42;99710.13;5045395;28;20525;-83
2021/08/13 11:15:39;;;;;;;16.50;5.78;;;;;;;23.10;48.13;99699.22;5049486;28;20045;-82
2021/08/13 11:18:40;;;;;;;15.63;5.95;;;;;;;23.48;49.03;99707.41;5051355;28;20041;-81
2021/08/13 11:21:34;;;;;;;16.75;6.38;;;;;;;23.84;48.52;99706.44;5056189;28;20564;-79
2021/08/13 11:24:03;;;;;;;11.85;6.50;;;;;;;23.80;46.85;99705.59;5052959;28;20127;-80
2021/08/13 11:26:50;;;;;;;10.93;5.75;;;;;;;23.72;47.86;99722.75;5031593;28;20056;-79
2021/08/13 11:29:33;;;;;;;14.10;6.03;;;;;;;23.54;48.44;99728.19;5048881;28;20421;-81
2021/08/13 11:32:24;;;;;;;19.27;6.32;;;;;;;23.70;48.08;99716.72;5049775;28;20033;-84
2021/08/13 11:35:03;;;;;;;15.05;5.43;;;;;;;23.81;47.27;99712.00;5048782;28;20041;-81
2021/08/13 11:37:34;;;;;;;12.27;6.47;;;;;;;23.70;45.61;99725.91;5056484;28;20401;-82
2021/08/13 11:40:14;;;;;;;14.23;6.32;;;;;;;23.70;46.22;99719.53;5055573;28;20065;-80
2021/08/13 11:42:50;;;;;;;17.75;6.28;;;;;;;23.73;46.78;99715.94;5044493;28;20037;-87
2021/08/13 11:45:19;;;;;;;17.88;6.50;;;;;;;23.59;48.32;99714.66;5046597;28;20037;-87
2021/08/13 11:47:48;;;;;;;18.67;6.50;;;;;;;23.60;46.59;99729.41;5041685;28;20037;-78
2021/08/13 11:50:14;;;;;;;14.70;6.55;;;;;;;23.41;48.27;99734.13;5055034;28;20059;-90
2021/08/13 11:52:47;;;;;;;14.30;6.97;;;;;;;23.03;47.25;99713.13;5065311;28;20041;-89
2021/08/13 11:55:26;;;;;;;31.85;6.75;;;;;;;22.93;48.39;99739.75;5057667;28;20183;-82
2021/08/13 11:57:54;;;;;;;16.02;6.05;;;;;;;22.92;48.23;99740.91;5040620;28;20041;-87
2021/08/13 12:00:25;;;;;;;14.80;6.20;;;;;;;23.20;49.43;99742.34;5060354;28;20036;-91
2021/08/13 12:03:02;;;;;;;15.65;7.05;;;;;;;23.57;48.06;99728.19;5067974;28;20048;-88
2021/08/13 12:05:34;;;;;;;11.73;6.28;;;;;;;24.06;47.67;99728.84;5050090;28;20502;-85
2021/08/13 12:08:03;;;;;;;16.95;6.25;;;;;;;23.92;46.01;99746.34;5051996;28;20509;-86
2021/08/13 12:10:31;;;;;;;14.23;6.53;;;;;;;23.56;45.67;99734.19;5036389;28;20037;-85
2021/08/13 12:13:08;;;;;;;13.70;6.45;;;;;;;23.49;47.28;99740.53;5037454;28;20046;-94
2021/08/13 12:15:36;;;;;;;23.02;7.00;;;;;;;23.48;46.66;99705.47;5018129;28;20140;-91
2021/08/13 12:18:06;;;;;;;19.77;7.55;;;;;;;23.71;46.23;99723.91;5016275;28;20559;-88
2021/08/13 12:20:34;;;;;;;12.85;6.60;;;;;;;23.62;45.17;99718.69;5025405;28;20081;-86
2021/08/13 12:23:03;;;;;;;22.00;6.90;;;;;;;23.79;46.35;99733.94;5036958;28;20556;-93
2021/08/13 12:25:48;;;;;;;14.15;6.90;;;;;;;23.63;47.10;99735.00;5040965;28;20506;-88
2021/08/13 12:28:19;;;;;;;19.85;7.10;;;;;;;23.31;46.25;99720.09;5043683;28;20037;-90
2021/08/13 12:30:47;;;;;;;17.63;6.88;;;;;;;23.59;47.52;99744.56;5044762;28;20123;-92
2021/08/13 12:33:16;;;;;;;22.55;7.75;;;;;;;23.63;46.70;99737.81;5057349;28;20049;-87
2021/08/13 12:35:45;;;;;;;24.38;7.38;;;;;;;23.85;47.30;99722.00;5074618;28;20036;-87
2021/08/13 12:38:13;;;;;;;15.63;7.28;;;;;;;23.95;46.52;99722.44;5063676;28;20422;-91
2021/08/13 12:40:51;;;;;;;20.55;6.57;;;;;;;23.87;47.73;99727.16;5024378;28;20097;-91
2021/08/13 12:43:18;;;;;;;19.90;7.22;;;;;;;23.55;47.57;99733.41;5073904;28;20117;-89
2021/08/13 12:45:46;;;;;;;25.38;7.95;;;;;;;23.40;48.62;99752.03;5040025;28;20464;-92
2021/08/13 12:48:13;;;;;;;14.02;7.60;;;;;;;23.10;48.10;99723.53;5075924;28;20116;-89